sensor_id;sensor_type;location;lat;lon;timestamp;pressure;altitude;pressure_sealevel;temperature;humidity
28648;BME280;17137;51.494;-0.262;2024-01-15T16:26:36;64275.46;;;21.72;57.58
28648;BME280;17137;51.494;-0.262;2024-01-15T16:27:06;50936.90;;;-145.72;47.85
28648;BME280;17137;51.494;-0.262;2024-01-15T16:27:37;50943.80;;;-145.72;47.70
28648;BME280;17137;51.494;-0.262;2024-01-15T16:28:07;50944.54;;;-145.72;47.75
28648;BME280;17137;51.494;-0.262;2024-01-15T16:28:37;50922.23;;;-145.72;47.64
28648;BME280;17137;51.494;-0.262;2024-01-15T16:29:07;50928.15;;;-145.72;47.46
28648;BME280;17137;51.494;-0.262;2024-01-15T16:29:37;50917.91;;;-145.72;46.85
28648;BME280;17137;51.494;-0.262;2024-01-15T16:30:08;50919.02;;;-145.72;46.41
28648;BME280;17137;51.494;-0.262;2024-01-15T16:30:39;50919.89;;;-145.72;46.27
28648;BME280;17137;51.494;-0.262;2024-01-15T16:31:09;50907.80;;;-145.72;46.26
28648;BME280;17137;51.494;-0.262;2024-01-15T16:31:39;50922.97;;;-145.72;46.19
28648;BME280;17137;51.494;-0.262;2024-01-15T16:32:09;50919.89;;;-145.72;46.15
28648;BME280;17137;51.494;-0.262;2024-01-15T16:32:39;50907.80;;;-145.72;45.77
28648;BME280;17137;51.494;-0.262;2024-01-15T16:33:09;50912.12;;;-145.72;45.59
28648;BME280;17137;51.494;-0.262;2024-01-15T16:33:40;50905.83;;;-145.72;45.49
28648;BME280;17137;51.494;-0.262;2024-01-15T16:34:10;50903.98;;;-145.72;45.47
28648;BME280;17137;51.494;-0.262;2024-01-15T16:34:40;50920.50;;;-145.72;45.63
28648;BME280;17137;51.494;-0.262;2024-01-15T16:35:10;50907.31;;;-145.72;45.66
28648;BME280;17137;51.494;-0.262;2024-01-15T16:35:40;50917.79;;;-145.72;45.69
28648;BME280;17137;51.494;-0.262;2024-01-15T16:36:10;50903.49;;;-145.72;45.68
28648;BME280;17137;51.494;-0.262;2024-01-15T16:36:40;50916.19;;;-145.72;45.61
28648;BME280;17137;51.494;-0.262;2024-01-15T16:37:10;50910.39;;;-145.72;45.32
28648;BME280;17137;51.494;-0.262;2024-01-15T16:37:41;50885.12;;;-145.72;44.99
28648;BME280;17137;51.494;-0.262;2024-01-15T16:38:11;50888.32;;;-145.72;44.84
28648;BME280;17137;51.494;-0.262;2024-01-15T16:38:41;50898.43;;;-145.72;44.42
28648;BME280;17137;51.494;-0.262;2024-01-15T16:39:11;50909.04;;;-145.72;44.63
28648;BME280;17137;51.494;-0.262;2024-01-15T16:39:41;50903.98;;;-145.72;44.86
28648;BME280;17137;51.494;-0.262;2024-01-15T16:40:12;50898.93;;;-145.72;44.40
28648;BME280;17137;51.494;-0.262;2024-01-15T16:40:42;50898.56;;;-145.72;43.93
28648;BME280;17137;51.494;-0.262;2024-01-15T16:41:12;50886.48;;;-145.72;43.93
28648;BME280;17137;51.494;-0.262;2024-01-15T16:41:42;50882.90;;;-145.72;43.76
28648;BME280;17137;51.494;-0.262;2024-01-15T16:42:12;50887.09;;;-145.72;43.57
28648;BME280;17137;51.494;-0.262;2024-01-15T16:42:43;50879.45;;;-145.72;43.63
28648;BME280;17137;51.494;-0.262;2024-01-15T16:43:13;50892.89;;;-145.72;43.42
28648;BME280;17137;51.494;-0.262;2024-01-15T16:43:43;50873.78;;;-145.72;43.32
28648;BME280;17137;51.494;-0.262;2024-01-15T16:44:13;50889.93;;;-145.72;43.22
28648;BME280;17137;51.494;-0.262;2024-01-15T16:44:43;50889.68;;;-145.72;43.13
28648;BME280;17137;51.494;-0.262;2024-01-15T16:45:13;50881.42;;;-145.72;43.21
28648;BME280;17137;51.494;-0.262;2024-01-15T16:45:43;50890.17;;;-145.72;43.17
28648;BME280;17137;51.494;-0.262;2024-01-15T16:46:14;50880.19;;;-145.72;42.81
28648;BME280;17137;51.494;-0.262;2024-01-15T16:46:44;50897.08;;;-145.72;43.09
28648;BME280;17137;51.494;-0.262;2024-01-15T16:47:14;50897.20;;;-145.72;43.30
28648;BME280;17137;51.494;-0.262;2024-01-15T16:47:44;50890.30;;;-145.72;43.38
28648;BME280;17137;51.494;-0.262;2024-01-15T16:48:14;50891.65;;;-145.72;43.66
28648;BME280;17137;51.494;-0.262;2024-01-15T16:48:44;50897.45;;;-145.72;43.70
28648;BME280;17137;51.494;-0.262;2024-01-15T16:49:14;50899.42;;;-145.72;43.62
28648;BME280;17137;51.494;-0.262;2024-01-15T16:49:45;50900.16;;;-145.72;43.36
28648;BME280;17137;51.494;-0.262;2024-01-15T16:50:15;50883.64;;;-145.72;43.07
28648;BME280;17137;51.494;-0.262;2024-01-15T16:50:45;50890.05;;;-145.72;42.93
28648;BME280;17137;51.494;-0.262;2024-01-15T16:51:15;50883.89;;;-145.72;42.94
28648;BME280;17137;51.494;-0.262;2024-01-15T16:51:45;50888.20;;;-145.72;42.98
28648;BME280;17137;51.494;-0.262;2024-01-15T16:52:15;50881.79;;;-145.72;42.62
28648;BME280;17137;51.494;-0.262;2024-01-15T16:52:46;50880.19;;;-145.72;42.69
28648;BME280;17137;51.494;-0.262;2024-01-15T16:53:16;50878.95;;;-145.72;42.49
28648;BME280;17137;51.494;-0.262;2024-01-15T16:53:46;50887.09;;;-145.72;42.53
28648;BME280;17137;51.494;-0.262;2024-01-15T16:54:16;50867.61;;;-145.72;42.48
28648;BME280;17137;51.494;-0.262;2024-01-15T16:54:46;50879.45;;;-145.72;42.58
28648;BME280;17137;51.494;-0.262;2024-01-15T16:55:17;50895.60;;;-145.72;42.55
28648;BME280;17137;51.494;-0.262;2024-01-15T16:55:47;50874.27;;;-145.72;42.39
28648;BME280;17137;51.494;-0.262;2024-01-15T16:56:17;50874.27;;;-145.72;42.30
28648;BME280;17137;51.494;-0.262;2024-01-15T16:56:47;50870.94;;;-145.72;42.32
28648;BME280;17137;51.494;-0.262;2024-01-15T16:57:17;50873.78;;;-145.72;42.19
28648;BME280;17137;51.494;-0.262;2024-01-15T16:57:47;50872.67;;;-145.72;42.17
28648;BME280;17137;51.494;-0.262;2024-01-15T16:58:18;50868.72;;;-145.72;42.04
28648;BME280;17137;51.494;-0.262;2024-01-15T16:58:48;50866.01;;;-145.72;41.89
28648;BME280;17137;51.494;-0.262;2024-01-15T16:59:18;50874.89;;;-145.72;41.72
28648;BME280;17137;51.494;-0.262;2024-01-15T16:59:49;50865.27;;;-145.72;41.56
28648;BME280;17137;51.494;-0.262;2024-01-15T17:00:19;50874.76;;;-145.72;41.53
28648;BME280;17137;51.494;-0.262;2024-01-15T17:00:49;50868.23;;;-145.72;41.51
28648;BME280;17137;51.494;-0.262;2024-01-15T17:01:21;50853.06;;;-145.72;41.38
28648;BME280;17137;51.494;-0.262;2024-01-15T17:01:51;50872.17;;;-145.72;41.26
28648;BME280;17137;51.494;-0.262;2024-01-15T17:02:22;50863.30;;;-145.72;41.34
28648;BME280;17137;51.494;-0.262;2024-01-15T17:02:52;50869.46;;;-145.72;41.31
28648;BME280;17137;51.494;-0.262;2024-01-15T17:03:23;50866.13;;;-145.72;41.27
28648;BME280;17137;51.494;-0.262;2024-01-15T17:03:53;50864.16;;;-145.72;41.33
28648;BME280;17137;51.494;-0.262;2024-01-15T17:04:23;50876.49;;;-145.72;41.31
28648;BME280;17137;51.494;-0.262;2024-01-15T17:04:53;50869.09;;;-145.72;41.12
28648;BME280;17137;51.494;-0.262;2024-01-15T17:05:24;50874.02;;;-145.72;41.05
28648;BME280;17137;51.494;-0.262;2024-01-15T17:05:54;50869.09;;;-145.72;41.06
28648;BME280;17137;51.494;-0.262;2024-01-15T17:06:24;50887.09;;;-145.72;41.14
28648;BME280;17137;51.494;-0.262;2024-01-15T17:06:54;50880.80;;;-145.72;41.17
28648;BME280;17137;51.494;-0.262;2024-01-15T17:07:24;50870.94;;;-145.72;41.07
28648;BME280;17137;51.494;-0.262;2024-01-15T17:07:54;50875.26;;;-145.72;40.99
28648;BME280;17137;51.494;-0.262;2024-01-15T17:08:24;50871.93;;;-145.72;41.04
28648;BME280;17137;51.494;-0.262;2024-01-15T17:08:55;50878.95;;;-145.72;41.09
28648;BME280;17137;51.494;-0.262;2024-01-15T17:09:25;50870.45;;;-145.72;41.21
28648;BME280;17137;51.494;-0.262;2024-01-15T17:09:55;50873.41;;;-145.72;41.32
28648;BME280;17137;51.494;-0.262;2024-01-15T17:10:25;50861.94;;;-145.72;41.48
28648;BME280;17137;51.494;-0.262;2024-01-15T17:10:56;50871.68;;;-145.72;41.52
28648;BME280;17137;51.494;-0.262;2024-01-15T17:11:26;50866.63;;;-145.72;41.57
28648;BME280;17137;51.494;-0.262;2024-01-15T17:11:56;50875.63;;;-145.72;41.57
28648;BME280;17137;51.494;-0.262;2024-01-15T17:12:26;50881.17;;;-145.72;41.67
28648;BME280;17137;51.494;-0.262;2024-01-15T17:12:56;50884.87;;;-145.72;41.64
28648;BME280;17137;51.494;-0.262;2024-01-15T17:13:26;50883.02;;;-145.72;41.81
28648;BME280;17137;51.494;-0.262;2024-01-15T17:13:56;50877.35;;;-145.72;41.83
28648;BME280;17137;51.494;-0.262;2024-01-15T17:14:26;50870.94;;;-145.72;41.66
28648;BME280;17137;51.494;-0.262;2024-01-15T17:14:56;50870.57;;;-145.72;41.57
28648;BME280;17137;51.494;-0.262;2024-01-15T17:15:27;50874.15;;;-145.72;41.58
28648;BME280;17137;51.494;-0.262;2024-01-15T17:15:57;50862.68;;;-145.72;41.48
28648;BME280;17137;51.494;-0.262;2024-01-15T17:16:27;50869.21;;;-145.72;41.36
28648;BME280;17137;51.494;-0.262;2024-01-15T17:16:57;50871.43;;;-145.72;41.44
28648;BME280;17137;51.494;-0.262;2024-01-15T17:17:27;50881.30;;;-145.72;41.58
28648;BME280;17137;51.494;-0.262;2024-01-15T17:17:58;50872.79;;;-145.72;41.66
28648;BME280;17137;51.494;-0.262;2024-01-15T17:18:28;50867.49;;;-145.72;41.61
28648;BME280;17137;51.494;-0.262;2024-01-15T17:18:58;50868.72;;;-145.72;41.56
28648;BME280;17137;51.494;-0.262;2024-01-15T17:19:28;50883.15;;;-145.72;41.56
28648;BME280;17137;51.494;-0.262;2024-01-15T17:19:58;50894.49;;;-145.72;41.56
28648;BME280;17137;51.494;-0.262;2024-01-15T17:20:28;50876.61;;;-145.72;41.65
28648;BME280;17137;51.494;-0.262;2024-01-15T17:20:59;50875.01;;;-145.72;41.68
28648;BME280;17137;51.494;-0.262;2024-01-15T17:21:29;50871.68;;;-145.72;41.71
28648;BME280;17137;51.494;-0.262;2024-01-15T17:22:04;50873.65;;;-145.72;41.70
28648;BME280;17137;51.494;-0.262;2024-01-15T17:22:35;50889.56;;;-145.72;41.76
28648;BME280;17137;51.494;-0.262;2024-01-15T17:23:05;50886.35;;;-145.72;42.19
28648;BME280;17137;51.494;-0.262;2024-01-15T17:23:36;50887.46;;;-145.72;42.40
28648;BME280;17137;51.494;-0.262;2024-01-15T17:24:06;50892.27;;;-145.72;42.66
28648;BME280;17137;51.494;-0.262;2024-01-15T17:24:37;50897.45;;;-145.72;42.81
28648;BME280;17137;51.494;-0.262;2024-01-15T17:25:07;50899.30;;;-145.72;42.69
28648;BME280;17137;51.494;-0.262;2024-01-15T17:25:38;50890.17;;;-145.72;42.70
28648;BME280;17137;51.494;-0.262;2024-01-15T17:26:08;50888.57;;;-145.72;42.63
28648;BME280;17137;51.494;-0.262;2024-01-15T17:26:38;50896.09;;;-145.72;42.60
28648;BME280;17137;51.494;-0.262;2024-01-15T17:27:08;50884.38;;;-145.72;42.49
28648;BME280;17137;51.494;-0.262;2024-01-15T17:27:39;50889.80;;;-145.72;42.65
28648;BME280;17137;51.494;-0.262;2024-01-15T17:28:09;50891.28;;;-145.72;42.76
28648;BME280;17137;51.494;-0.262;2024-01-15T17:28:39;50895.48;;;-145.72;42.88
28648;BME280;17137;51.494;-0.262;2024-01-15T17:29:09;50903.61;;;-145.72;42.84
28648;BME280;17137;51.494;-0.262;2024-01-15T17:29:39;50882.41;;;-145.72;42.51
28648;BME280;17137;51.494;-0.262;2024-01-15T17:30:10;50884.26;;;-145.72;42.31
28648;BME280;17137;51.494;-0.262;2024-01-15T17:30:40;50876.98;;;-145.72;42.20
28648;BME280;17137;51.494;-0.262;2024-01-15T17:31:10;50882.78;;;-145.72;42.17
28648;BME280;17137;51.494;-0.262;2024-01-15T17:31:40;50876.24;;;-145.72;42.06
28648;BME280;17137;51.494;-0.262;2024-01-15T17:32:10;50878.09;;;-145.72;42.03
28648;BME280;17137;51.494;-0.262;2024-01-15T17:32:41;50872.05;;;-145.72;41.93
28648;BME280;17137;51.494;-0.262;2024-01-15T17:33:11;50886.48;;;-145.72;42.05
28648;BME280;17137;51.494;-0.262;2024-01-15T17:33:41;50872.91;;;-145.72;41.90
28648;BME280;17137;51.494;-0.262;2024-01-15T17:34:11;50867.37;;;-145.72;41.77
28648;BME280;17137;51.494;-0.262;2024-01-15T17:34:41;50875.87;;;-145.72;41.98
28648;BME280;17137;51.494;-0.262;2024-01-15T17:35:11;50879.69;;;-145.72;41.97
28648;BME280;17137;51.494;-0.262;2024-01-15T17:35:50;50865.76;;;-145.72;41.97
28648;BME280;17137;51.494;-0.262;2024-01-15T17:36:20;50882.16;;;-145.72;41.92
28648;BME280;17137;51.494;-0.262;2024-01-15T17:36:50;50875.13;;;-145.72;41.90
28648;BME280;17137;51.494;-0.262;2024-01-15T17:37:25;50867.98;;;-145.72;41.90
28648;BME280;17137;51.494;-0.262;2024-01-15T17:37:56;50875.01;;;-145.72;41.91
28648;BME280;17137;51.494;-0.262;2024-01-15T17:38:28;50882.41;;;-145.72;41.90
28648;BME280;17137;51.494;-0.262;2024-01-15T17:38:58;50887.46;;;-145.72;42.09
28648;BME280;17137;51.494;-0.262;2024-01-15T17:39:28;50885.00;;;-145.72;42.13
28648;BME280;17137;51.494;-0.262;2024-01-15T17:39:58;50893.75;;;-145.72;42.34
28648;BME280;17137;51.494;-0.262;2024-01-15T17:40:28;50889.68;;;-145.72;42.40
28648;BME280;17137;51.494;-0.262;2024-01-15T17:40:59;50884.38;;;-145.72;42.22
28648;BME280;17137;51.494;-0.262;2024-01-15T17:41:29;50882.65;;;-145.72;42.26
28648;BME280;17137;51.494;-0.262;2024-01-15T17:41:59;50881.91;;;-145.72;42.26
28648;BME280;17137;51.494;-0.262;2024-01-15T17:42:29;50870.32;;;-145.72;42.22
28648;BME280;17137;51.494;-0.262;2024-01-15T17:42:59;50893.87;;;-145.72;42.20
28648;BME280;17137;51.494;-0.262;2024-01-15T17:43:29;50876.49;;;-145.72;42.13
28648;BME280;17137;51.494;-0.262;2024-01-15T17:44:00;50894.37;;;-145.72;42.41
28648;BME280;17137;51.494;-0.262;2024-01-15T17:44:30;50885.49;;;-145.72;42.45
28648;BME280;17137;51.494;-0.262;2024-01-15T17:45:00;50881.05;;;-145.72;42.45
28648;BME280;17137;51.494;-0.262;2024-01-15T17:45:30;50891.16;;;-145.72;42.40
28648;BME280;17137;51.494;-0.262;2024-01-15T17:46:00;50875.63;;;-145.72;42.37
28648;BME280;17137;51.494;-0.262;2024-01-15T17:46:30;50880.56;;;-145.72;42.42
28648;BME280;17137;51.494;-0.262;2024-01-15T17:47:01;50887.34;;;-145.72;42.53
28648;BME280;17137;51.494;-0.262;2024-01-15T17:47:31;50886.11;;;-145.72;42.58
28648;BME280;17137;51.494;-0.262;2024-01-15T17:48:01;50895.23;;;-145.72;42.74
28648;BME280;17137;51.494;-0.262;2024-01-15T17:48:31;50874.39;;;-145.72;42.85
28648;BME280;17137;51.494;-0.262;2024-01-15T17:49:01;50891.65;;;-145.72;42.85
28648;BME280;17137;51.494;-0.262;2024-01-15T17:49:31;50884.50;;;-145.72;42.88
28648;BME280;17137;51.494;-0.262;2024-01-15T17:50:02;50880.43;;;-145.72;42.74
28648;BME280;17137;51.494;-0.262;2024-01-15T17:50:32;50872.42;;;-145.72;42.68
28648;BME280;17137;51.494;-0.262;2024-01-15T17:51:02;50889.80;;;-145.72;42.63
28648;BME280;17137;51.494;-0.262;2024-01-15T17:51:33;50886.11;;;-145.72;42.71
28648;BME280;17137;51.494;-0.262;2024-01-15T17:52:03;50892.15;;;-145.72;42.82
28648;BME280;17137;51.494;-0.262;2024-01-15T17:52:34;50907.56;;;-145.72;42.96
28648;BME280;17137;51.494;-0.262;2024-01-15T17:53:04;50892.27;;;-145.72;42.94
28648;BME280;17137;51.494;-0.262;2024-01-15T17:53:34;50896.09;;;-145.72;43.41
28648;BME280;17137;51.494;-0.262;2024-01-15T17:54:04;50884.87;;;-145.72;43.49
28648;BME280;17137;51.494;-0.262;2024-01-15T17:54:34;50888.57;;;-145.72;43.50
28648;BME280;17137;51.494;-0.262;2024-01-15T17:55:05;50880.31;;;-145.72;43.56
28648;BME280;17137;51.494;-0.262;2024-01-15T17:55:35;50888.45;;;-145.72;43.46
28648;BME280;17137;51.494;-0.262;2024-01-15T17:56:06;50878.21;;;-145.72;43.35
28648;BME280;17137;51.494;-0.262;2024-01-15T17:56:36;50896.95;;;-145.72;43.31
28648;BME280;17137;51.494;-0.262;2024-01-15T17:57:06;50894.74;;;-145.72;43.32
28648;BME280;17137;51.494;-0.262;2024-01-15T17:57:37;50888.08;;;-145.72;43.29
28648;BME280;17137;51.494;-0.262;2024-01-15T17:58:07;50890.79;;;-145.72;43.33
28648;BME280;17137;51.494;-0.262;2024-01-15T17:58:37;50894.98;;;-145.72;43.32
28648;BME280;17137;51.494;-0.262;2024-01-15T17:59:07;50881.17;;;-145.72;43.32
28648;BME280;17137;51.494;-0.262;2024-01-15T17:59:37;50892.15;;;-145.72;43.26
28648;BME280;17137;51.494;-0.262;2024-01-15T18:00:09;50885.74;;;-145.72;43.32
28648;BME280;17137;51.494;-0.262;2024-01-15T18:00:44;50895.60;;;-145.72;43.41
28648;BME280;17137;51.494;-0.262;2024-01-15T18:01:15;50895.23;;;-145.72;43.46
28648;BME280;17137;51.494;-0.262;2024-01-15T18:01:46;50888.82;;;-145.72;43.51
28648;BME280;17137;51.494;-0.262;2024-01-15T18:02:16;50889.31;;;-145.72;43.51
28648;BME280;17137;51.494;-0.262;2024-01-15T18:02:46;50884.38;;;-145.72;43.52
28648;BME280;17137;51.494;-0.262;2024-01-15T18:03:16;50880.68;;;-145.72;43.60
28648;BME280;17137;51.494;-0.262;2024-01-15T18:03:47;50895.60;;;-145.72;43.93
28648;BME280;17137;51.494;-0.262;2024-01-15T18:04:17;50894.49;;;-145.72;44.04
28648;BME280;17137;51.494;-0.262;2024-01-15T18:04:47;50883.02;;;-145.72;43.90
28648;BME280;17137;51.494;-0.262;2024-01-15T18:05:17;50891.65;;;-145.72;43.95
28648;BME280;17137;51.494;-0.262;2024-01-15T18:05:47;50879.69;;;-145.72;44.00
28648;BME280;17137;51.494;-0.262;2024-01-15T18:06:17;50897.69;;;-145.72;43.95
28648;BME280;17137;51.494;-0.262;2024-01-15T18:06:52;50899.91;;;-145.72;43.97
28648;BME280;17137;51.494;-0.262;2024-01-15T18:07:23;50889.43;;;-145.72;43.93
28648;BME280;17137;51.494;-0.262;2024-01-15T18:07:53;50879.69;;;-145.72;43.88
28648;BME280;17137;51.494;-0.262;2024-01-15T18:08:23;50890.79;;;-145.72;43.96
28648;BME280;17137;51.494;-0.262;2024-01-15T18:08:53;50887.83;;;-145.72;44.01
28648;BME280;17137;51.494;-0.262;2024-01-15T18:09:23;50893.87;;;-145.72;44.03
28648;BME280;17137;51.494;-0.262;2024-01-15T18:09:54;50895.85;;;-145.72;44.17
28648;BME280;17137;51.494;-0.262;2024-01-15T18:10:29;50897.20;;;-145.72;44.19
28648;BME280;17137;51.494;-0.262;2024-01-15T18:10:59;50905.58;;;-145.72;44.38
28648;BME280;17137;51.494;-0.262;2024-01-15T18:11:29;50895.72;;;-145.72;44.50
28648;BME280;17137;51.494;-0.262;2024-01-15T18:11:59;50899.17;;;-145.72;44.48
28648;BME280;17137;51.494;-0.262;2024-01-15T18:12:29;50890.91;;;-145.72;44.30
28648;BME280;17137;51.494;-0.262;2024-01-15T18:13:00;50897.69;;;-145.72;44.37
28648;BME280;17137;51.494;-0.262;2024-01-15T18:13:30;50902.13;;;-145.72;44.45
28648;BME280;17137;51.494;-0.262;2024-01-15T18:14:01;50884.13;;;-145.72;44.48
28648;BME280;17137;51.494;-0.262;2024-01-15T18:14:31;50898.80;;;-145.72;44.55
28648;BME280;17137;51.494;-0.262;2024-01-15T18:15:01;50904.97;;;-145.72;44.49
28648;BME280;17137;51.494;-0.262;2024-01-15T18:15:31;50905.21;;;-145.72;44.44
28648;BME280;17137;51.494;-0.262;2024-01-15T18:16:01;50904.35;;;-145.72;44.50
28648;BME280;17137;51.494;-0.262;2024-01-15T18:16:32;50904.72;;;-145.72;44.46
28648;BME280;17137;51.494;-0.262;2024-01-15T18:17:02;50904.97;;;-145.72;44.50
28648;BME280;17137;51.494;-0.262;2024-01-15T18:17:38;50893.50;;;-145.72;44.53
28648;BME280;17137;51.494;-0.262;2024-01-15T18:18:08;50903.49;;;-145.72;44.65
28648;BME280;17137;51.494;-0.262;2024-01-15T18:18:38;50909.16;;;-145.72;44.72
28648;BME280;17137;51.494;-0.262;2024-01-15T18:19:08;50904.48;;;-145.72;44.88
28648;BME280;17137;51.494;-0.262;2024-01-15T18:19:38;50906.45;;;-145.72;44.87
28648;BME280;17137;51.494;-0.262;2024-01-15T18:20:10;50905.58;;;-145.72;44.83
28648;BME280;17137;51.494;-0.262;2024-01-15T18:20:40;50902.63;;;-145.72;44.86
28648;BME280;17137;51.494;-0.262;2024-01-15T18:21:11;50900.16;;;-145.72;44.88
28648;BME280;17137;51.494;-0.262;2024-01-15T18:21:41;50912.24;;;-145.72;44.90
28648;BME280;17137;51.494;-0.262;2024-01-15T18:22:11;50905.71;;;-145.72;44.83
28648;BME280;17137;51.494;-0.262;2024-01-15T18:22:41;50896.34;;;-145.72;44.85
28648;BME280;17137;51.494;-0.262;2024-01-15T18:23:11;50904.23;;;-145.72;44.93
28648;BME280;17137;51.494;-0.262;2024-01-15T18:23:41;50911.01;;;-145.72;45.02
28648;BME280;17137;51.494;-0.262;2024-01-15T18:24:12;50900.28;;;-145.72;45.11
28648;BME280;17137;51.494;-0.262;2024-01-15T18:24:42;50915.57;;;-145.72;45.17
28648;BME280;17137;51.494;-0.262;2024-01-15T18:25:12;50908.54;;;-145.72;45.12
28648;BME280;17137;51.494;-0.262;2024-01-15T18:25:42;50901.52;;;-145.72;45.12
28648;BME280;17137;51.494;-0.262;2024-01-15T18:26:13;50911.63;;;-145.72;45.05
28648;BME280;17137;51.494;-0.262;2024-01-15T18:26:43;50911.63;;;-145.72;45.12
28648;BME280;17137;51.494;-0.262;2024-01-15T18:27:13;50908.54;;;-145.72;45.13
28648;BME280;17137;51.494;-0.262;2024-01-15T18:27:44;50909.90;;;-145.72;45.13
28648;BME280;17137;51.494;-0.262;2024-01-15T18:28:14;50910.15;;;-145.72;45.18
28648;BME280;17137;51.494;-0.262;2024-01-15T18:28:44;50902.87;;;-145.72;45.20
28648;BME280;17137;51.494;-0.262;2024-01-15T18:29:14;50907.19;;;-145.72;45.29
28648;BME280;17137;51.494;-0.262;2024-01-15T18:29:44;50901.02;;;-145.72;45.35
28648;BME280;17137;51.494;-0.262;2024-01-15T18:30:15;50901.02;;;-145.72;45.42
28648;BME280;17137;51.494;-0.262;2024-01-15T18:30:45;50909.90;;;-145.72;45.55
28648;BME280;17137;51.494;-0.262;2024-01-15T18:31:15;50908.54;;;-145.72;45.67
28648;BME280;17137;51.494;-0.262;2024-01-15T18:31:45;50904.60;;;-145.72;45.72
28648;BME280;17137;51.494;-0.262;2024-01-15T18:32:16;50913.35;;;-145.72;45.89
28648;BME280;17137;51.494;-0.262;2024-01-15T18:32:46;50909.90;;;-145.72;45.98
28648;BME280;17137;51.494;-0.262;2024-01-15T18:33:16;50908.42;;;-145.72;46.04
28648;BME280;17137;51.494;-0.262;2024-01-15T18:33:51;50910.76;;;-145.72;46.09
28648;BME280;17137;51.494;-0.262;2024-01-15T18:34:21;50906.08;;;-145.72;46.19
28648;BME280;17137;51.494;-0.262;2024-01-15T18:34:52;50908.30;;;-145.72;46.12
28648;BME280;17137;51.494;-0.262;2024-01-15T18:35:22;50903.49;;;-145.72;46.13
28648;BME280;17137;51.494;-0.262;2024-01-15T18:35:52;50905.09;;;-145.72;45.97
28648;BME280;17137;51.494;-0.262;2024-01-15T18:36:22;50910.64;;;-145.72;45.89
28648;BME280;17137;51.494;-0.262;2024-01-15T18:36:52;50919.27;;;-145.72;45.89
28648;BME280;17137;51.494;-0.262;2024-01-15T18:37:22;50905.83;;;-145.72;45.91
28648;BME280;17137;51.494;-0.262;2024-01-15T18:37:53;50919.39;;;-145.72;45.88
28648;BME280;17137;51.494;-0.262;2024-01-15T18:38:23;50904.11;;;-145.72;45.85
28648;BME280;17137;51.494;-0.262;2024-01-15T18:38:53;50907.43;;;-145.72;45.71
28648;BME280;17137;51.494;-0.262;2024-01-15T18:39:23;50901.52;;;-145.72;45.67
28648;BME280;17137;51.494;-0.262;2024-01-15T18:39:53;50910.76;;;-145.72;45.73
28648;BME280;17137;51.494;-0.262;2024-01-15T18:40:29;50904.97;;;-145.72;45.75
28648;BME280;17137;51.494;-0.262;2024-01-15T18:40:59;50918.65;;;-145.72;45.86
28648;BME280;17137;51.494;-0.262;2024-01-15T18:41:29;50916.68;;;-145.72;45.99
28648;BME280;17137;51.494;-0.262;2024-01-15T18:41:59;50905.09;;;-145.72;45.99
28648;BME280;17137;51.494;-0.262;2024-01-15T18:42:29;50913.35;;;-145.72;45.83
28648;BME280;17137;51.494;-0.262;2024-01-15T18:42:59;50913.11;;;-145.72;45.84
28648;BME280;17137;51.494;-0.262;2024-01-15T18:43:30;50908.42;;;-145.72;46.00
28648;BME280;17137;51.494;-0.262;2024-01-15T18:44:01;50900.53;;;-145.72;45.94
28648;BME280;17137;51.494;-0.262;2024-01-15T18:44:31;50912.74;;;-145.72;45.83
28648;BME280;17137;51.494;-0.262;2024-01-15T18:45:01;50899.91;;;-145.72;45.75
28648;BME280;17137;51.494;-0.262;2024-01-15T18:45:31;50914.58;;;-145.72;45.77
28648;BME280;17137;51.494;-0.262;2024-01-15T18:46:04;50912.98;;;-145.72;45.81
28648;BME280;17137;51.494;-0.262;2024-01-15T18:46:34;50911.38;;;-145.72;45.98
28648;BME280;17137;51.494;-0.262;2024-01-15T18:47:04;50913.85;;;-145.72;45.99
28648;BME280;17137;51.494;-0.262;2024-01-15T18:47:34;50919.39;;;-145.72;45.97
28648;BME280;17137;51.494;-0.262;2024-01-15T18:48:06;50916.43;;;-145.72;45.89
28648;BME280;17137;51.494;-0.262;2024-01-15T18:48:36;50917.79;;;-145.72;45.81
28648;BME280;17137;51.494;-0.262;2024-01-15T18:49:06;50902.01;;;-145.72;45.76
28648;BME280;17137;51.494;-0.262;2024-01-15T18:49:37;50904.23;;;-145.72;45.59
28648;BME280;17137;51.494;-0.262;2024-01-15T18:50:12;50904.48;;;-145.72;45.50
28648;BME280;17137;51.494;-0.262;2024-01-15T18:50:43;50916.19;;;-145.72;45.41
28648;BME280;17137;51.494;-0.262;2024-01-15T18:51:20;50918.65;;;-145.72;45.46
28648;BME280;17137;51.494;-0.262;2024-01-15T18:51:50;50900.65;;;-145.72;45.46
28648;BME280;17137;51.494;-0.262;2024-01-15T18:52:20;50908.05;;;-145.72;45.41
28648;BME280;17137;51.494;-0.262;2024-01-15T18:52:50;50920.13;;;-145.72;45.41
28648;BME280;17137;51.494;-0.262;2024-01-15T18:53:20;50920.38;;;-145.72;45.47
28648;BME280;17137;51.494;-0.262;2024-01-15T18:53:51;50917.79;;;-145.72;45.40
28648;BME280;17137;51.494;-0.262;2024-01-15T18:54:21;50928.76;;;-145.72;45.35
28648;BME280;17137;51.494;-0.262;2024-01-15T18:54:51;50911.87;;;-145.72;45.38
28648;BME280;17137;51.494;-0.262;2024-01-15T18:55:21;50919.27;;;-145.72;45.29
28648;BME280;17137;51.494;-0.262;2024-01-15T18:55:52;50932.58;;;-145.72;45.40
28648;BME280;17137;51.494;-0.262;2024-01-15T18:56:22;50917.42;;;-145.72;45.63
28648;BME280;17137;51.494;-0.262;2024-01-15T18:56:52;50927.28;;;-145.72;45.75
28648;BME280;17137;51.494;-0.262;2024-01-15T18:57:22;50926.30;;;-145.72;45.81
28648;BME280;17137;51.494;-0.262;2024-01-15T18:57:53;50910.15;;;-145.72;45.73
28648;BME280;17137;51.494;-0.262;2024-01-15T18:58:23;50918.04;;;-145.72;45.62
28648;BME280;17137;51.494;-0.262;2024-01-15T18:58:53;50915.32;;;-145.72;45.53
28648;BME280;17137;51.494;-0.262;2024-01-15T18:59:24;50920.87;;;-145.72;45.42
28648;BME280;17137;51.494;-0.262;2024-01-15T18:59:54;50928.64;;;-145.72;45.33
28648;BME280;17137;51.494;-0.262;2024-01-15T19:00:24;50915.45;;;-145.72;45.24
28648;BME280;17137;51.494;-0.262;2024-01-15T19:00:54;50911.13;;;-145.72;45.29
28648;BME280;17137;51.494;-0.262;2024-01-15T19:01:26;50917.05;;;-145.72;45.18